Time;durP1;ratioP1;P1;durP2;ratioP2;P2;SDS_P1;SDS_P2;PMS_P1;PMS_P2;Temp;Humidity;BMP_temperature;BMP_pressure;BME280_temperature;BME280_humidity;BME280_pressure;Samples;Min_cycle;Max_cycle;Signal;HPM_P1;HPM_P2
2022/11/28 00:01:46;;;;;;;12.32;5.95;;;;;;;6.69;100.00;100915.59;5051806;28;20039;-72
2022/11/28 00:04:12;;;;;;;10.90;6.03;;;;;;;6.70;100.00;100918.06;5051964;28;20116;-72
2022/11/28 00:06:44;;;;;;;11.85;6.75;;;;;;;6.67;100.00;100899.84;5052181;28;20496;-72
2022/11/28 00:09:09;;;;;;;12.63;5.75;;;;;;;6.72;100.00;100907.28;5051968;28;20056;-72
2022/11/28 00:11:37;;;;;;;12.65;6.70;;;;;;;6.70;100.00;100896.84;5051967;28;20130;-72
2022/11/28 00:14:02;;;;;;;11.18;6.30;;;;;;;6.75;100.00;100901.66;5052015;28;20028;-72
2022/11/28 00:16:28;;;;;;;10.10;5.47;;;;;;;6.77;100.00;100895.19;5052083;28;20400;-72
2022/11/28 00:18:54;;;;;;;12.68;5.55;;;;;;;6.74;100.00;100890.22;5051858;28;20028;-72
2022/11/28 00:21:20;;;;;;;9.05;5.22;;;;;;;6.79;100.00;100897.69;5051683;28;20102;-72
2022/11/28 00:23:47;;;;;;;12.35;5.30;;;;;;;6.80;100.00;100897.47;5051657;28;20033;-72
2022/11/28 00:26:16;;;;;;;12.52;5.35;;;;;;;6.85;100.00;100899.63;5051558;28;20087;-72
2022/11/28 00:28:41;;;;;;;8.48;4.40;;;;;;;6.88;100.00;100893.16;5051853;28;20033;-72
2022/11/28 00:31:12;;;;;;;9.35;5.00;;;;;;;6.86;100.00;100893.31;5052204;28;20033;-72
2022/11/28 00:33:37;;;;;;;12.65;6.10;;;;;;;6.88;100.00;100891.31;5051834;28;20032;-72
2022/11/28 00:36:04;;;;;;;12.82;6.28;;;;;;;6.94;100.00;100897.75;5050085;28;20036;-73
2022/11/28 00:38:30;;;;;;;12.75;5.80;;;;;;;6.89;100.00;100887.69;5051483;28;20032;-72
2022/11/28 00:41:07;;;;;;;8.57;4.88;;;;;;;6.90;100.00;100881.38;5051483;28;20021;-73
2022/11/28 00:43:33;;;;;;;11.68;4.65;;;;;;;6.97;100.00;100881.53;5051397;28;20039;-73
2022/11/28 00:45:58;;;;;;;10.48;5.28;;;;;;;6.98;100.00;100883.19;5049954;28;20028;-72
2022/11/28 00:48:24;;;;;;;12.48;5.18;;;;;;;7.01;100.00;100883.66;5051202;28;20032;-72
2022/11/28 00:50:50;;;;;;;12.65;5.57;;;;;;;7.04;100.00;100882.47;5051098;28;20029;-72
2022/11/28 00:53:16;;;;;;;9.32;4.97;;;;;;;7.00;100.00;100878.53;5050926;28;20430;-72
2022/11/28 00:55:41;;;;;;;9.25;4.68;;;;;;;7.05;100.00;100872.69;5050949;28;20033;-72
2022/11/28 00:58:07;;;;;;;11.02;4.95;;;;;;;7.08;100.00;100875.84;5049873;28;20029;-72
2022/11/28 01:00:32;;;;;;;6.78;3.75;;;;;;;7.12;100.00;100876.31;5050946;28;20041;-72
2022/11/28 01:02:58;;;;;;;6.97;3.97;;;;;;;7.02;100.00;100861.47;5050759;28;20043;-72
2022/11/28 01:05:24;;;;;;;8.20;4.85;;;;;;;7.15;100.00;100878.63;5050890;28;20044;-72
2022/11/28 01:07:49;;;;;;;16.58;4.55;;;;;;;7.14;100.00;100859.22;5051544;28;20135;-72
2022/11/28 01:10:14;;;;;;;8.75;4.07;;;;;;;7.18;100.00;100870.34;5049661;28;20116;-73
2022/11/28 01:12:40;;;;;;;10.50;4.35;;;;;;;7.20;100.00;100874.47;5051178;28;20037;-72
2022/11/28 01:15:08;;;;;;;11.05;4.95;;;;;;;7.20;100.00;100863.00;5049664;28;20029;-72
2022/11/28 01:17:33;;;;;;;12.20;4.72;;;;;;;7.22;100.00;100864.50;5050716;28;20036;-72
2022/11/28 01:19:59;;;;;;;8.18;4.35;;;;;;;7.21;100.00;100867.34;5050595;28;20380;-72
2022/11/28 01:22:24;;;;;;;10.35;4.95;;;;;;;7.22;100.00;100866.31;5032533;28;20075;-72
2022/11/28 01:24:49;;;;;;;9.93;5.03;;;;;;;7.24;100.00;100864.31;5050514;28;20079;-72
2022/11/28 01:27:15;;;;;;;8.48;4.47;;;;;;;7.24;100.00;100873.09;5050657;28;20119;-72
2022/11/28 01:29:40;;;;;;;8.85;5.20;;;;;;;7.20;100.00;100863.84;5033095;28;20041;-71
2022/11/28 01:32:05;;;;;;;10.40;4.35;;;;;;;7.25;100.00;100860.66;5049228;28;20032;-71
2022/11/28 01:34:31;;;;;;;8.20;4.20;;;;;;;7.25;100.00;100864.13;5050422;28;20033;-71
2022/11/28 01:36:56;;;;;;;9.82;4.90;;;;;;;7.25;100.00;100861.47;5050377;28;20040;-71
2022/11/28 01:39:21;;;;;;;9.02;4.85;;;;;;;7.21;100.00;100868.16;5049890;28;20032;-71
2022/11/28 01:41:47;;;;;;;9.00;4.82;;;;;;;7.21;100.00;100862.03;5049670;28;20025;-72
2022/11/28 01:44:12;;;;;;;11.57;4.13;;;;;;;7.27;100.00;100873.75;5050144;28;20419;-71
2022/11/28 01:46:37;;;;;;;10.50;4.73;;;;;;;7.23;100.00;100870.59;5050121;28;20461;-71
2022/11/28 01:49:21;;;;;;;9.23;4.22;;;;;;;7.26;100.00;100870.28;5050123;28;20306;-72
2022/11/28 01:51:51;;;;;;;8.38;4.00;;;;;;;7.24;100.00;100870.44;5050199;28;20028;-72
2022/11/28 01:54:21;;;;;;;8.07;4.60;;;;;;;7.22;100.00;100868.97;5050037;28;20034;-71
2022/11/28 01:56:52;;;;;;;8.27;3.97;;;;;;;7.23;100.00;100870.59;5049797;28;20078;-71
2022/11/28 01:59:20;;;;;;;7.35;4.05;;;;;;;7.20;100.00;100870.97;5049985;28;20392;-71
2022/11/28 02:01:45;;;;;;;10.43;4.85;;;;;;;7.16;100.00;100861.72;5049758;28;20032;-71
2022/11/28 02:04:12;;;;;;;9.48;4.95;;;;;;;7.18;100.00;100867.69;5049688;28;20055;-71
2022/11/28 02:06:38;;;;;;;10.57;4.05;;;;;;;7.18;100.00;100862.38;5048353;28;20032;-71
2022/11/28 02:09:10;;;;;;;11.07;5.25;;;;;;;7.15;100.00;100857.41;5049805;28;20123;-71
2022/11/28 02:11:54;;;;;;;7.82;4.50;;;;;;;7.16;100.00;100861.72;5049899;28;20115;-71
2022/11/28 02:14:38;;;;;;;9.23;4.55;;;;;;;7.15;100.00;100863.56;5049387;28;20036;-71
2022/11/28 02:17:06;;;;;;;10.48;3.55;;;;;;;7.14;100.00;100853.09;5049645;28;20380;-71
2022/11/28 02:19:37;;;;;;;6.85;4.18;;;;;;;7.14;100.00;100853.94;5049704;28;20048;-71
2022/11/28 02:22:10;;;;;;;9.63;4.80;;;;;;;7.15;100.00;100852.94;5049453;28;20414;-71
2022/11/28 02:25:03;;;;;;;7.32;3.58;;;;;;;7.13;100.00;100843.50;5049571;28;20112;-71
2022/11/28 02:28:01;;;;;;;7.10;3.72;;;;;;;7.10;100.00;100836.72;5049646;28;20037;-71
2022/11/28 02:30:44;;;;;;;7.90;3.55;;;;;;;7.14;100.00;100843.31;5049732;28;20970;-71
2022/11/28 02:33:10;;;;;;;8.60;3.70;;;;;;;7.15;100.00;100844.97;5049647;28;20031;-71
2022/11/28 02:35:41;;;;;;;5.07;2.88;;;;;;;7.15;100.00;100839.69;5049674;28;20472;-71
2022/11/28 02:38:35;;;;;;;6.97;3.42;;;;;;;7.08;100.00;100833.41;5049664;28;20688;-71
2022/11/28 02:41:21;;;;;;;8.13;3.28;;;;;;;7.15;100.00;100844.13;5049400;28;20029;-72
2022/11/28 02:43:58;;;;;;;8.85;4.30;;;;;;;7.12;100.00;100844.50;5049530;28;20132;-71
2022/11/28 02:46:39;;;;;;;6.43;3.20;;;;;;;7.11;100.00;100848.16;5049402;28;20025;-71
2022/11/28 02:49:11;;;;;;;10.73;4.95;;;;;;;7.07;100.00;100842.34;5049496;28;20043;-71
2022/11/28 02:51:44;;;;;;;5.35;2.92;;;;;;;7.10;100.00;100843.84;5049174;28;20028;-72
2022/11/28 02:54:13;;;;;;;6.95;3.20;;;;;;;7.07;100.00;100839.69;5051351;28;20032;-71
2022/11/28 02:56:47;;;;;;;5.90;3.55;;;;;;;7.06;100.00;100838.06;5053365;28;20135;-71
2022/11/28 02:59:43;;;;;;;5.25;3.58;;;;;;;7.05;100.00;100835.56;5053123;28;20054;-71
2022/11/28 03:02:23;;;;;;;10.32;3.70;;;;;;;7.00;100.00;100830.81;5053230;28;20060;-71
2022/11/28 03:05:19;;;;;;;10.68;3.03;;;;;;;7.04;100.00;100837.41;5053263;28;20021;-72
2022/11/28 03:07:51;;;;;;;5.68;2.75;;;;;;;7.03;100.00;100838.41;5053233;28;20041;-72
2022/11/28 03:10:42;;;;;;;7.60;3.03;;;;;;;7.02;100.00;100828.78;5053038;28;20086;-71
2022/11/28 03:13:13;;;;;;;6.35;3.25;;;;;;;7.02;100.00;100834.09;5049977;28;20072;-72
2022/11/28 03:15:55;;;;;;;7.85;3.22;;;;;;;6.97;100.00;100829.34;5053018;28;20103;-71
2022/11/28 03:18:49;;;;;;;6.65;3.05;;;;;;;6.99;100.00;100826.50;5052958;28;20025;-71
2022/11/28 03:21:29;;;;;;;5.45;2.95;;;;;;;6.99;100.00;100826.50;5052845;28;20020;-72
2022/11/28 03:24:32;;;;;;;5.47;3.05;;;;;;;6.99;100.00;100823.84;5052795;28;20039;-71
2022/11/28 03:27:06;;;;;;;7.35;3.03;;;;;;;6.97;100.00;100834.63;5052466;28;20037;-71
2022/11/28 03:29:39;;;;;;;8.77;3.30;;;;;;;6.96;100.00;100830.31;5052751;28;20487;-72
2022/11/28 03:32:12;;;;;;;4.97;3.22;;;;;;;6.94;100.00;100829.69;5052710;28;20036;-71
2022/11/28 03:34:43;;;;;;;9.40;3.40;;;;;;;6.87;100.00;100814.63;5051411;28;20025;-72
2022/11/28 03:37:18;;;;;;;6.60;3.30;;;;;;;6.94;100.00;100827.03;5052644;28;20025;-72
2022/11/28 03:39:49;;;;;;;6.60;3.33;;;;;;;6.91;100.00;100827.34;5052475;28;20283;-71
2022/11/28 03:42:23;;;;;;;7.53;2.90;;;;;;;6.92;100.00;100826.38;5052607;28;20056;-72
2022/11/28 03:44:54;;;;;;;9.00;3.00;;;;;;;6.93;100.00;100832.50;5052255;28;20071;-72
2022/11/28 03:47:23;;;;;;;6.35;3.53;;;;;;;6.84;100.00;100812.31;5052621;28;20083;-72
2022/11/28 03:49:53;;;;;;;7.88;3.22;;;;;;;6.90;100.00;100823.06;5052163;28;20041;-72
2022/11/28 03:52:31;;;;;;;7.88;3.60;;;;;;;6.91;100.00;100823.88;5052334;28;20032;-71
2022/11/28 03:55:06;;;;;;;8.20;3.83;;;;;;;6.84;100.00;100809.66;5052238;28;20024;-72
2022/11/28 03:57:44;;;;;;;6.15;3.15;;;;;;;6.90;100.00;100815.09;5052269;28;20491;-71
2022/11/28 04:00:14;;;;;;;6.03;3.05;;;;;;;6.88;100.00;100825.06;5050627;28;20119;-71
2022/11/28 04:03:07;;;;;;;7.15;3.58;;;;;;;6.90;100.00;100825.72;5052286;28;20411;-71
2022/11/28 04:05:45;;;;;;;7.55;3.92;;;;;;;6.90;100.00;100824.91;5051511;28;20025;-71
2022/11/28 04:08:20;;;;;;;7.28;3.65;;;;;;;6.88;100.00;100818.94;5050595;28;20051;-72
2022/11/28 04:11:10;;;;;;;5.82;3.33;;;;;;;6.89;100.00;100832.03;5051969;28;20066;-72
2022/11/28 04:13:54;;;;;;;8.13;3.75;;;;;;;6.89;100.00;100829.38;5051933;28;20126;-71
2022/11/28 04:16:36;;;;;;;6.75;3.00;;;;;;;6.86;100.00;100824.41;5051947;28;20023;-71
2022/11/28 04:19:26;;;;;;;7.65;3.67;;;;;;;6.79;100.00;100815.50;5051865;28;20434;-72
2022/11/28 04:22:13;;;;;;;7.15;4.20;;;;;;;6.86;100.00;100820.91;5051530;28;20483;-72
2022/11/28 04:24:44;;;;;;;7.68;3.80;;;;;;;6.84;100.00;100829.06;5051678;28;20025;-72
2022/11/28 04:27:15;;;;;;;7.93;3.28;;;;;;;6.86;100.00;100828.88;5051805;28;20024;-72
2022/11/28 04:29:46;;;;;;;6.50;3.10;;;;;;;6.87;100.00;100831.38;5051809;28;20084;-71
2022/11/28 04:32:13;;;;;;;7.07;4.18;;;;;;;6.86;100.00;100831.53;5051649;28;20035;-71
2022/11/28 04:34:43;;;;;;;8.43;3.45;;;;;;;6.79;100.00;100826.94;5051658;28;20025;-72
2022/11/28 04:37:13;;;;;;;8.23;3.60;;;;;;;6.80;100.00;100827.75;5051659;28;20041;-72
2022/11/28 04:39:43;;;;;;;8.32;4.40;;;;;;;6.82;100.00;100835.53;5051165;28;20037;-72
2022/11/28 04:42:16;;;;;;;7.95;3.67;;;;;;;6.84;100.00;100834.38;5049896;28;20031;-72
2022/11/28 04:44:50;;;;;;;7.93;3.92;;;;;;;6.85;100.00;100829.88;5051462;28;20365;-72
2022/11/28 04:47:16;;;;;;;8.82;3.33;;;;;;;6.81;100.00;100826.72;5051390;28;20526;-72
2022/11/28 04:49:42;;;;;;;8.20;4.35;;;;;;;6.79;100.00;100821.63;5051352;28;20041;-72
2022/11/28 04:52:14;;;;;;;7.55;3.60;;;;;;;6.81;100.00;100824.09;5051157;28;20032;-72
2022/11/28 04:55:05;;;;;;;6.90;4.13;;;;;;;6.83;100.00;100830.03;5051053;28;20031;-71
2022/11/28 04:57:41;;;;;;;7.07;3.33;;;;;;;6.83;100.00;100832.69;5050985;28;20112;-72
2022/11/28 05:00:11;;;;;;;7.75;3.45;;;;;;;6.79;100.00;100826.94;5051111;28;20032;-72
2022/11/28 05:02:39;;;;;;;7.53;3.67;;;;;;;6.80;100.00;100823.25;5050830;28;20031;-72
2022/11/28 05:05:10;;;;;;;10.63;3.67;;;;;;;6.79;100.00;100826.94;5050697;28;20426;-73
2022/11/28 05:07:35;;;;;;;8.50;3.65;;;;;;;6.79;100.00;100823.44;5049230;28;20052;-72
2022/11/28 05:10:01;;;;;;;10.18;4.85;;;;;;;6.80;100.00;100831.22;5050795;28;20079;-72
2022/11/28 05:12:26;;;;;;;10.38;3.88;;;;;;;6.80;100.00;100822.44;5051028;28;20036;-72
2022/11/28 05:14:51;;;;;;;6.43;3.38;;;;;;;6.79;100.00;100834.88;5051707;28;20029;-72
2022/11/28 05:17:17;;;;;;;8.35;4.10;;;;;;;6.79;100.00;100834.88;5044970;28;20044;-72
2022/11/28 05:19:42;;;;;;;7.05;3.95;;;;;;;6.79;100.00;100834.06;5050364;28;20040;-72
2022/11/28 05:22:08;;;;;;;6.85;3.70;;;;;;;6.70;100.00;100827.94;5049188;28;20059;-72
2022/11/28 05:24:33;;;;;;;7.05;3.72;;;;;;;6.80;100.00;100846.31;5050581;28;20028;-71
2022/11/28 05:26:58;;;;;;;7.97;3.75;;;;;;;6.80;100.00;100843.66;5050692;28;20028;-72
2022/11/28 05:29:24;;;;;;;11.23;3.45;;;;;;;6.79;100.00;100850.78;5050657;28;20025;-72
2022/11/28 05:31:49;;;;;;;6.05;3.35;;;;;;;6.79;100.00;100839.34;5049383;28;20506;-72
2022/11/28 05:34:15;;;;;;;7.88;3.50;;;;;;;6.80;100.00;100844.47;5050406;28;20127;-71
2022/11/28 05:36:40;;;;;;;7.65;3.53;;;;;;;6.81;100.00;100845.28;5049038;28;20032;-71
2022/11/28 05:39:05;;;;;;;4.80;2.97;;;;;;;6.83;100.00;100850.44;5050302;28;20032;-72
2022/11/28 05:41:32;;;;;;;7.75;3.53;;;;;;;6.81;100.00;100847.94;5050287;28;20053;-72
2022/11/28 05:43:59;;;;;;;6.70;3.65;;;;;;;6.80;100.00;100844.47;5050350;28;20072;-72
2022/11/28 05:46:24;;;;;;;8.40;4.57;;;;;;;6.78;100.00;100851.75;5050275;28;20021;-72
2022/11/28 05:48:50;;;;;;;11.82;4.93;;;;;;;6.85;100.00;100856.41;5050125;28;20039;-71
2022/11/28 05:51:16;;;;;;;8.48;4.10;;;;;;;6.85;100.00;100853.75;5048981;28;20119;-71
2022/11/28 05:53:41;;;;;;;7.57;4.28;;;;;;;6.85;100.00;100853.75;5050265;28;20036;-72
2022/11/28 05:56:18;;;;;;;9.85;4.32;;;;;;;6.87;100.00;100843.81;5050036;28;20029;-72
2022/11/28 05:58:44;;;;;;;8.07;5.03;;;;;;;6.87;100.00;100857.88;5049871;28;20029;-71
2022/11/28 06:01:21;;;;;;;6.18;3.60;;;;;;;6.88;100.00;100853.41;5048400;28;20017;-72
2022/11/28 06:03:47;;;;;;;6.50;3.40;;;;;;;6.84;100.00;100852.06;5049260;28;20071;-72
2022/11/28 06:06:18;;;;;;;7.15;3.63;;;;;;;6.88;100.00;100845.44;5049813;28;20102;-71
2022/11/28 06:08:45;;;;;;;7.05;3.80;;;;;;;6.88;100.00;100853.41;5049321;28;20381;-71
2022/11/28 06:11:13;;;;;;;6.72;3.53;;;;;;;6.87;100.00;100838.50;5049944;28;20032;-71
2022/11/28 06:13:40;;;;;;;4.93;3.55;;;;;;;6.90;100.00;100846.91;5047925;28;20033;-71
2022/11/28 06:16:07;;;;;;;6.72;3.83;;;;;;;6.89;100.00;100847.09;5049682;28;20028;-71
2022/11/28 06:18:33;;;;;;;6.95;3.65;;;;;;;6.89;100.00;100844.44;5049600;28;20063;-72
2022/11/28 06:21:01;;;;;;;7.63;3.53;;;;;;;6.88;100.00;100848.91;5049160;28;20028;-72
2022/11/28 06:23:27;;;;;;;6.13;4.07;;;;;;;6.88;100.00;100848.91;5049195;28;20116;-72
2022/11/28 06:25:52;;;;;;;7.32;3.92;;;;;;;6.87;100.00;100854.41;5048137;28;20188;-71
2022/11/28 06:28:17;;;;;;;7.10;3.45;;;;;;;6.91;100.00;100851.22;5048030;28;20079;-71
2022/11/28 06:30:43;;;;;;;5.07;3.38;;;;;;;6.91;100.00;100858.34;5049575;28;20028;-71
2022/11/28 06:33:08;;;;;;;8.10;4.18;;;;;;;6.90;100.00;100862.00;5049568;28;20079;-72
2022/11/28 06:35:34;;;;;;;7.90;4.00;;;;;;;6.88;100.00;100856.88;5049350;28;20589;-72
2022/11/28 06:37:59;;;;;;;9.38;4.00;;;;;;;6.91;100.00;100867.13;5049514;28;20468;-72
2022/11/28 06:40:25;;;;;;;8.48;3.50;;;;;;;6.92;100.00;100865.31;5049514;28;20029;-72
2022/11/28 06:42:50;;;;;;;8.15;3.33;;;;;;;6.92;100.00;100871.44;5049479;28;20029;-71
2022/11/28 06:45:16;;;;;;;7.60;3.65;;;;;;;6.92;100.00;100876.75;5049321;28;20632;-72
2022/11/28 06:47:41;;;;;;;9.32;3.97;;;;;;;6.89;100.00;100861.19;5049455;28;20029;-72
2022/11/28 06:50:08;;;;;;;6.50;3.47;;;;;;;6.92;100.00;100865.31;5049394;28;20040;-72
2022/11/28 06:52:33;;;;;;;7.15;3.97;;;;;;;6.92;100.00;100868.78;5049370;28;20025;-72
2022/11/28 06:54:59;;;;;;;9.57;4.28;;;;;;;6.90;100.00;100864.66;5049306;28;20025;-71
2022/11/28 06:57:24;;;;;;;8.38;3.85;;;;;;;6.92;100.00;100871.44;5047997;28;20025;-71
2022/11/28 06:59:50;;;;;;;9.63;3.90;;;;;;;6.92;100.00;100871.44;5049325;28;20037;-71
2022/11/28 07:02:15;;;;;;;6.78;3.60;;;;;;;6.92;100.00;100881.22;5049309;28;20376;-72
2022/11/28 07:04:40;;;;;;;8.38;4.00;;;;;;;6.91;100.00;100875.06;5048892;28;20039;-71
2022/11/28 07:07:06;;;;;;;8.85;4.53;;;;;;;6.93;100.00;100880.22;5047697;28;20083;-72
2022/11/28 07:09:31;;;;;;;8.90;4.32;;;;;;;6.92;100.00;100875.94;5048842;28;20123;-72
2022/11/28 07:11:56;;;;;;;8.18;4.15;;;;;;;6.91;100.00;100864.47;5047915;28;20361;-72
2022/11/28 07:14:22;;;;;;;8.02;4.70;;;;;;;6.94;100.00;100871.25;5049148;28;20041;-71
2022/11/28 07:16:48;;;;;;;8.35;4.28;;;;;;;6.91;100.00;100877.72;5048928;28;20021;-71
2022/11/28 07:19:14;;;;;;;9.38;5.22;;;;;;;6.91;100.00;100872.44;5049066;28;20056;-72
2022/11/28 07:21:40;;;;;;;10.75;4.65;;;;;;;6.93;100.00;100873.09;5048915;28;20063;-72
2022/11/28 07:24:05;;;;;;;9.50;4.80;;;;;;;6.94;100.00;100879.22;5047683;28;20103;-72
2022/11/28 07:26:31;;;;;;;8.57;5.15;;;;;;;6.94;100.00;100876.56;5048909;28;20488;-71
2022/11/28 07:28:58;;;;;;;8.32;4.63;;;;;;;6.91;100.00;100875.06;5049047;28;20118;-72
2022/11/28 07:31:26;;;;;;;9.13;5.55;;;;;;;6.94;100.00;100888.00;5047748;28;20408;-72
2022/11/28 07:33:52;;;;;;;10.25;5.57;;;;;;;6.91;100.00;100880.38;5048938;28;20493;-72
2022/11/28 07:36:23;;;;;;;9.00;5.28;;;;;;;6.96;100.00;100887.81;5048746;28;20147;-72
2022/11/28 07:38:54;;;;;;;10.48;5.32;;;;;;;6.94;100.00;100884.50;5048557;28;20391;-70
2022/11/28 07:41:20;;;;;;;7.88;4.72;;;;;;;6.97;100.00;100890.31;5051610;28;20025;-72
2022/11/28 07:43:46;;;;;;;12.93;5.90;;;;;;;6.95;100.00;100883.53;5052508;28;20028;-71
2022/11/28 07:46:15;;;;;;;13.57;6.28;;;;;;;6.98;100.00;100888.47;5051220;28;20041;-71
2022/11/28 07:48:41;;;;;;;12.27;6.32;;;;;;;6.95;100.00;100889.66;5052515;28;20496;-71
2022/11/28 07:51:08;;;;;;;9.30;5.25;;;;;;;6.99;100.00;100895.44;5052425;28;20032;-71
2022/11/28 07:53:35;;;;;;;9.65;5.30;;;;;;;6.99;100.00;100898.09;5052394;28;20078;-71
2022/11/28 07:56:02;;;;;;;11.50;5.35;;;;;;;6.97;100.00;100892.97;5052419;28;20037;-71
2022/11/28 07:58:28;;;;;;;13.63;5.43;;;;;;;6.98;100.00;100894.59;5050917;28;20547;-71
2022/11/28 08:00:53;;;;;;;8.20;4.90;;;;;;;7.01;100.00;100904.03;5052344;28;20124;-71
2022/11/28 08:03:18;;;;;;;10.93;5.13;;;;;;;6.95;100.00;100905.56;5050831;28;20476;-71
2022/11/28 08:05:48;;;;;;;9.70;5.13;;;;;;;7.03;100.00;100920.63;5051879;28;20021;-70
2022/11/28 08:08:15;;;;;;;10.80;5.47;;;;;;;7.02;100.00;100917.16;5050082;28;20059;-73
2022/11/28 08:10:40;;;;;;;10.43;5.25;;;;;;;7.03;100.00;100920.63;5051919;28;20044;-70
2022/11/28 08:13:06;;;;;;;8.73;4.68;;;;;;;7.05;100.00;100915.13;5050557;28;20392;-70
2022/11/28 08:15:31;;;;;;;10.02;5.35;;;;;;;7.03;100.00;100910.81;5051979;28;20392;-70
2022/11/28 08:17:56;;;;;;;11.77;5.40;;;;;;;7.06;100.00;100912.31;5052003;28;20039;-71
2022/11/28 08:20:22;;;;;;;13.57;5.45;;;;;;;7.04;100.00;100906.34;5051899;28;20090;-70
2022/11/28 08:22:47;;;;;;;12.95;5.72;;;;;;;7.07;100.00;100913.13;5050566;28;20048;-69
2022/11/28 08:25:12;;;;;;;13.60;5.47;;;;;;;7.08;100.00;100914.81;5045044;28;20044;-70
2022/11/28 08:27:38;;;;;;;13.05;6.25;;;;;;;7.05;100.00;100909.81;5045071;28;20029;-73
2022/11/28 08:30:04;;;;;;;10.75;5.75;;;;;;;7.06;100.00;100909.66;5026811;28;20028;-69
2022/11/28 08:32:30;;;;;;;14.82;6.70;;;;;;;7.07;100.00;100910.47;5045800;28;20055;-68
2022/11/28 08:34:55;;;;;;;11.30;6.05;;;;;;;7.09;100.00;100916.44;5045130;28;20119;-68
2022/11/28 08:37:21;;;;;;;11.40;5.63;;;;;;;7.10;100.00;100918.94;5045270;28;20096;-70
2022/11/28 08:39:46;;;;;;;10.68;5.35;;;;;;;7.11;100.00;100919.75;5043948;28;20112;-69
2022/11/28 08:42:11;;;;;;;11.20;5.38;;;;;;;7.12;100.00;100921.41;5043993;28;20024;-69
2022/11/28 08:44:37;;;;;;;10.57;5.30;;;;;;;7.11;100.00;100925.88;5045445;28;20071;-69
2022/11/28 08:47:02;;;;;;;10.00;5.15;;;;;;;7.13;100.00;100920.41;5045527;28;20124;-70
2022/11/28 08:49:28;;;;;;;12.00;6.05;;;;;;;7.14;100.00;100916.75;5044850;28;20040;-72
2022/11/28 08:51:53;;;;;;;12.00;5.75;;;;;;;7.18;100.00;100926.03;5043227;28;20029;-72
2022/11/28 08:54:19;;;;;;;13.48;6.15;;;;;;;7.19;100.00;100922.38;5044733;28;20025;-72
2022/11/28 08:56:46;;;;;;;12.13;5.60;;;;;;;7.22;100.00;100922.84;5045174;28;20059;-69
2022/11/28 08:59:11;;;;;;;12.57;5.80;;;;;;;7.24;100.00;100926.16;5045025;28;20028;-68
2022/11/28 09:01:38;;;;;;;10.35;4.88;;;;;;;7.25;100.00;100921.66;5045035;28;20017;-71
2022/11/28 09:04:03;;;;;;;9.93;5.07;;;;;;;7.30;100.00;100927.28;5043700;28;20063;-69
2022/11/28 09:06:29;;;;;;;13.27;5.60;;;;;;;7.29;100.00;100923.00;5044916;28;20033;-70
2022/11/28 09:08:54;;;;;;;11.80;6.80;;;;;;;7.30;100.00;100927.28;5044641;28;20055;-70
2022/11/28 09:11:21;;;;;;;12.50;5.68;;;;;;;7.35;100.00;100934.72;5043085;28;20350;-71
2022/11/28 09:13:47;;;;;;;10.30;4.93;;;;;;;7.35;100.00;100922.28;5043423;28;20029;-70
2022/11/28 09:16:13;;;;;;;10.57;5.82;;;;;;;7.36;100.00;100923.09;5044581;28;20025;-69
2022/11/28 09:18:39;;;;;;;11.02;5.28;;;;;;;7.35;100.00;100932.06;5045153;28;20032;-70
2022/11/28 09:21:08;;;;;;;10.93;5.10;;;;;;;7.38;100.00;100934.38;5044812;28;20099;-70
2022/11/28 09:23:34;;;;;;;10.10;5.07;;;;;;;7.37;100.00;100938.88;5044176;28;20063;-69
2022/11/28 09:26:00;;;;;;;9.18;5.28;;;;;;;7.38;100.00;100943.16;5043167;28;20021;-69
2022/11/28 09:28:27;;;;;;;11.52;5.40;;;;;;;7.42;100.00;100933.03;5044767;28;20475;-69
2022/11/28 09:30:59;;;;;;;12.27;6.15;;;;;;;7.45;100.00;100938.81;5044708;28;20057;-69
2022/11/28 09:33:25;;;;;;;9.93;5.05;;;;;;;7.47;100.00;100936.00;5044478;28;20098;-69
2022/11/28 09:35:50;;;;;;;11.48;5.68;;;;;;;7.52;100.00;100938.13;5043254;28;20029;-68
2022/11/28 09:38:15;;;;;;;11.45;5.25;;;;;;;7.51;100.00;100937.28;5044337;28;20429;-70
2022/11/28 09:40:43;;;;;;;13.77;5.90;;;;;;;7.55;100.00;100941.25;5043088;28;20036;-70
2022/11/28 09:43:17;;;;;;;12.55;5.95;;;;;;;7.57;100.00;100943.72;5044578;28;20083;-69
2022/11/28 09:45:44;;;;;;;14.13;5.78;;;;;;;7.57;100.00;100941.06;5043634;28;20492;-70
2022/11/28 09:48:26;;;;;;;12.55;6.45;;;;;;;7.57;100.00;100931.31;5044442;28;20063;-69
2022/11/28 09:50:58;;;;;;;11.38;5.90;;;;;;;7.60;100.00;100940.75;5044185;28;20059;-69
2022/11/28 09:53:37;;;;;;;12.20;5.75;;;;;;;7.66;100.00;100943.50;5043732;28;20025;-70
2022/11/28 09:56:09;;;;;;;12.77;6.43;;;;;;;7.69;100.00;100951.13;5044069;28;20024;-69
2022/11/28 09:58:50;;;;;;;13.00;5.90;;;;;;;7.71;100.00;100952.78;5043827;28;20028;-70
2022/11/28 10:01:38;;;;;;;11.27;5.88;;;;;;;7.73;100.00;100948.97;5043802;28;20032;-69
2022/11/28 10:04:28;;;;;;;12.93;5.72;;;;;;;7.77;100.00;100950.25;5042985;28;20128;-71
2022/11/28 10:07:12;;;;;;;12.88;6.13;;;;;;;7.78;100.00;100940.44;5041986;28;20045;-68
2022/11/28 10:09:44;;;;;;;12.18;5.95;;;;;;;7.83;100.00;100948.72;5048584;28;20025;-71
2022/11/28 10:12:17;;;;;;;12.25;6.18;;;;;;;7.80;100.00;100936.63;5049240;28;20097;-71
2022/11/28 10:15:05;;;;;;;11.38;5.22;;;;;;;7.87;100.00;100944.72;5048922;28;20050;-71
2022/11/28 10:18:04;;;;;;;12.93;6.03;;;;;;;7.87;100.00;100950.03;5048685;28;20441;-71
2022/11/28 10:20:35;;;;;;;13.05;5.72;;;;;;;7.87;100.00;100945.53;5049088;28;20036;-71
2022/11/28 10:23:06;;;;;;;11.07;5.60;;;;;;;7.89;100.00;100948.03;5046876;28;20059;-71
2022/11/28 10:25:42;;;;;;;11.20;5.85;;;;;;;7.90;100.00;100949.66;5048491;28;20073;-71
2022/11/28 10:28:20;;;;;;;12.60;5.97;;;;;;;7.89;100.00;100943.53;5049221;28;20033;-71
2022/11/28 10:30:51;;;;;;;12.75;5.90;;;;;;;7.95;100.00;100947.31;5048203;28;20128;-71
2022/11/28 10:33:19;;;;;;;9.98;5.10;;;;;;;8.01;100.00;100949.25;5049327;28;20039;-71
2022/11/28 10:35:54;;;;;;;10.60;4.80;;;;;;;8.05;100.00;100936.47;5049349;28;20021;-71
2022/11/28 10:38:24;;;;;;;11.20;5.55;;;;;;;8.10;100.00;100947.38;5049129;28;20036;-71
2022/11/28 10:41:11;;;;;;;13.00;6.10;;;;;;;8.13;100.00;100949.66;5049139;28;20032;-71
2022/11/28 10:44:00;;;;;;;12.50;5.57;;;;;;;8.11;100.00;100944.53;5049412;28;20029;-71
2022/11/28 10:46:40;;;;;;;14.13;5.75;;;;;;;8.14;100.00;100943.34;5049125;28;20044;-71
2022/11/28 10:49:27;;;;;;;9.80;5.30;;;;;;;8.18;100.00;100943.84;5049392;28;20028;-72
2022/11/28 10:52:10;;;;;;;10.25;4.88;;;;;;;8.16;100.00;100943.19;5049335;28;20124;-71
2022/11/28 10:54:49;;;;;;;13.45;5.97;;;;;;;8.15;100.00;100938.84;5049394;28;20481;-74
2022/11/28 10:57:30;;;;;;;12.68;5.93;;;;;;;8.21;100.00;100954.09;5049318;28;20075;-72
2022/11/28 11:00:04;;;;;;;13.82;6.75;;;;;;;8.18;100.00;100949.16;5049205;28;20083;-72
2022/11/28 11:02:40;;;;;;;14.20;5.68;;;;;;;8.20;100.00;100947.97;5049295;28;20500;-72
2022/11/28 11:05:11;;;;;;;11.85;5.57;;;;;;;8.15;100.00;100946.81;5047796;28;20036;-72
2022/11/28 11:07:37;;;;;;;;;;;;;;;8.25;100.00;100947.41;5049394;28;20036;-72
2022/11/28 11:10:16;;;;;;;14.00;6.57;;;;;;;8.25;100.00;100950.06;5049070;28;19931;-72
2022/11/28 11:12:43;;;;;;;12.05;6.03;;;;;;;8.25;100.00;100948.25;5048789;28;20325;-72
2022/11/28 11:15:28;;;;;;;11.52;5.80;;;;;;;8.27;100.00;100946.22;5049404;28;20047;-72
2022/11/28 11:17:54;;;;;;;12.38;6.03;;;;;;;8.27;100.00;100942.75;5051879;28;20036;-72
2022/11/28 11:20:39;;;;;;;14.25;6.30;;;;;;;8.27;100.00;100938.25;5052942;28;20033;-72
2022/11/28 11:23:18;;;;;;;18.42;6.70;;;;;;;8.30;100.00;100950.34;5034736;28;20053;-72
2022/11/28 11:25:57;;;;;;;12.55;6.25;;;;;;;8.29;100.00;100951.38;5052742;28;20506;-72
2022/11/28 11:28:31;;;;;;;13.52;5.90;;;;;;;8.29;100.00;100949.53;5052734;28;20487;-72
2022/11/28 11:31:02;;;;;;;14.15;6.15;;;;;;;8.27;100.00;100940.09;5052822;28;20158;-72
2022/11/28 11:33:33;;;;;;;16.75;6.70;;;;;;;8.30;100.00;100947.69;5052802;28;20025;-72
2022/11/28 11:36:01;;;;;;;15.57;6.50;;;;;;;8.31;100.00;100946.72;5052692;28;20051;-72
2022/11/28 11:38:29;;;;;;;15.60;7.65;;;;;;;8.32;100.00;100938.53;5052727;28;20079;-72